createdAt,value
2023-03-21T00:03:49.262Z,10.55
2023-03-21T00:07:52.431Z,10.56
2023-03-21T00:11:56.980Z,10.55
2023-03-21T00:16:07.522Z,10.54
2023-03-21T00:20:23.515Z,10.54
2023-03-21T00:24:26.505Z,10.56
2023-03-21T00:28:30.994Z,10.56
2023-03-21T00:32:35.658Z,10.56
2023-03-21T00:36:42.940Z,10.54
2023-03-21T00:40:49.189Z,10.53
2023-03-21T00:44:53.724Z,10.48
2023-03-21T00:48:56.590Z,10.42
2023-03-21T00:53:00.024Z,10.28
2023-03-21T00:57:03.129Z,10.19
2023-03-21T01:01:09.422Z,10.14
2023-03-21T01:05:13.139Z,10.07
2023-03-21T01:09:18.132Z,9.97
2023-03-21T01:13:23.855Z,9.96
2023-03-21T01:17:28.479Z,9.95
2023-03-21T01:21:31.941Z,9.98
2023-03-21T01:25:35.135Z,10.00
2023-03-21T01:29:38.228Z,9.99
2023-03-21T01:33:43.608Z,9.99
2023-03-21T01:37:48.807Z,10.01
2023-03-21T01:41:52.219Z,10.02
2023-03-21T01:46:43.479Z,10.07
2023-03-21T01:51:13.486Z,10.10
2023-03-21T01:55:30.838Z,10.12
2023-03-21T01:59:41.976Z,10.15
2023-03-21T02:04:11.391Z,10.17
2023-03-21T02:08:38.766Z,10.20
2023-03-21T02:12:46.519Z,10.23
2023-03-21T02:16:59.186Z,10.24
2023-03-21T02:21:36.445Z,10.27
2023-03-21T02:26:16.142Z,10.26
2023-03-21T02:31:01.254Z,10.28
2023-03-21T02:35:44.170Z,10.31
2023-03-21T02:40:09.613Z,10.33
2023-03-21T02:44:21.962Z,10.36
2023-03-21T02:48:44.520Z,10.35
2023-03-21T02:52:54.929Z,10.36
2023-03-21T02:57:02.123Z,10.38
2023-03-21T03:01:07.129Z,10.42
2023-03-21T03:05:21.877Z,10.43
2023-03-21T03:09:39.394Z,10.42
2023-03-21T03:13:58.574Z,10.40
2023-03-21T03:18:08.183Z,10.38
2023-03-21T03:22:16.223Z,10.35
2023-03-21T03:26:22.602Z,10.32
2023-03-21T03:30:39.299Z,10.26
2023-03-21T03:34:50.887Z,10.22
2023-03-21T03:38:57.731Z,10.16
2023-03-21T03:43:06.238Z,10.09
2023-03-21T03:47:32.413Z,10.03
2023-03-21T03:51:41.828Z,9.97
2023-03-21T03:56:01.473Z,9.88
2023-03-21T04:00:11.872Z,9.83
2023-03-21T04:04:22.918Z,9.77
2023-03-21T04:08:28.107Z,9.72
2023-03-21T04:12:33.647Z,9.69
2023-03-21T04:17:03.628Z,9.66
2023-03-21T04:21:14.511Z,9.66
2023-03-21T04:25:30.703Z,9.64
2023-03-21T04:29:36.537Z,9.61
2023-03-21T04:34:09.690Z,9.60
2023-03-21T04:38:15.508Z,9.57
2023-03-21T04:42:20.051Z,9.52
2023-03-21T04:46:24.311Z,9.50
2023-03-21T04:50:27.463Z,9.48
2023-03-21T04:54:32.360Z,9.42
2023-03-21T04:58:35.270Z,9.40
2023-03-21T05:02:39.051Z,9.34
2023-03-21T05:06:43.984Z,9.29
2023-03-21T05:10:48.326Z,9.25
2023-03-21T05:14:52.791Z,9.21
2023-03-21T05:18:55.828Z,9.19
2023-03-21T05:22:59.131Z,9.19
2023-03-21T05:27:03.667Z,9.18
2023-03-21T05:31:16.737Z,9.18
2023-03-21T05:35:21.719Z,9.15
2023-03-21T05:39:25.251Z,9.13
2023-03-21T05:43:38.569Z,9.08
2023-03-21T05:47:42.297Z,9.03
2023-03-21T05:51:47.178Z,8.99
2023-03-21T05:55:50.219Z,8.96
2023-03-21T06:00:14.817Z,8.89
2023-03-21T06:04:29.666Z,8.83
2023-03-21T06:08:32.803Z,8.85
2023-03-21T06:12:37.012Z,8.83
2023-03-21T06:16:58.452Z,8.87
2023-03-21T06:21:01.959Z,8.99
2023-03-21T06:25:07.531Z,9.08
2023-03-21T06:29:11.215Z,9.20
2023-03-21T06:33:15.694Z,9.30
2023-03-21T06:37:20.438Z,9.47
2023-03-21T06:41:23.769Z,9.59
2023-03-21T06:45:37.515Z,9.67
2023-03-21T06:49:43.945Z,9.79
2023-03-21T06:53:49.179Z,9.86
2023-03-21T06:57:59.194Z,9.99
2023-03-21T07:02:04.296Z,10.10
2023-03-21T07:06:13.607Z,10.25
2023-03-21T07:10:17.856Z,10.33
2023-03-21T07:14:27.722Z,10.48
2023-03-21T07:18:31.488Z,10.60
2023-03-21T07:22:36.567Z,10.68
2023-03-21T07:26:40.439Z,10.79
2023-03-21T07:30:43.762Z,10.91
2023-03-21T07:34:46.690Z,10.97
2023-03-21T07:38:51.375Z,11.09
2023-03-21T07:42:58.931Z,11.12
2023-03-21T07:47:07.399Z,11.17
2023-03-21T07:51:10.368Z,11.27
2023-03-21T07:55:14.797Z,11.34
2023-03-21T07:59:17.753Z,11.47
2023-03-21T08:03:21.305Z,11.63
2023-03-21T08:07:24.296Z,11.74
2023-03-21T08:11:31.341Z,11.77
2023-03-21T08:15:34.292Z,11.86
2023-03-21T08:19:37.770Z,11.89
2023-03-21T08:23:40.834Z,11.96
2023-03-21T08:27:46.977Z,12.04
2023-03-21T08:31:50.059Z,12.00
2023-03-21T08:35:52.994Z,11.97
2023-03-21T08:39:56.502Z,12.07
2023-03-21T08:44:00.934Z,12.19
2023-03-21T08:48:03.885Z,12.25
2023-03-21T08:52:07.212Z,12.27
2023-03-21T08:56:10.989Z,12.34
2023-03-21T09:00:18.356Z,12.43
2023-03-21T09:04:21.313Z,12.58
2023-03-21T09:08:24.379Z,12.63
2023-03-21T09:12:27.669Z,12.61
2023-03-21T09:16:32.465Z,12.65
2023-03-21T09:20:38.390Z,12.67
2023-03-21T09:24:42.562Z,12.72
2023-03-21T09:28:46.248Z,12.67
2023-03-21T09:32:50.610Z,12.74
2023-03-21T09:36:54.700Z,12.82
2023-03-21T09:41:10.344Z,12.86
2023-03-21T09:45:20.502Z,12.97
2023-03-21T09:49:31.070Z,13.13
2023-03-21T09:53:37.648Z,13.23
2023-03-21T09:57:45.764Z,13.28
2023-03-21T10:01:50.452Z,13.41
2023-03-21T10:05:58.592Z,13.47
2023-03-21T10:10:04.511Z,13.51
2023-03-21T10:14:14.172Z,13.60
2023-03-21T10:18:22.573Z,13.67
2023-03-21T10:22:27.069Z,13.80
2023-03-21T10:26:31.458Z,13.94
2023-03-21T10:30:39.825Z,14.11
2023-03-21T10:34:46.832Z,14.27
2023-03-21T10:38:56.216Z,14.34
2023-03-21T10:43:18.123Z,14.50
2023-03-21T10:47:23.142Z,14.56
2023-03-21T10:51:29.361Z,14.55
2023-03-21T10:55:36.026Z,14.51
2023-03-21T10:59:43.260Z,14.42
2023-03-21T11:03:48.245Z,14.36
2023-03-21T11:07:59.776Z,14.47
2023-03-21T11:12:06.799Z,14.53
2023-03-21T11:16:12.772Z,14.59
2023-03-21T11:20:20.064Z,14.72
2023-03-21T11:24:23.313Z,14.82
2023-03-21T11:28:34.704Z,14.73
2023-03-21T11:32:39.635Z,14.71
2023-03-21T11:36:42.627Z,14.65
2023-03-21T11:40:54.746Z,14.60
2023-03-21T11:45:12.696Z,14.68
2023-03-21T11:49:15.636Z,14.74
2023-03-21T11:53:32.053Z,14.86
2023-03-21T11:57:44.721Z,14.97
2023-03-21T12:01:59.759Z,15.04
2023-03-21T12:06:06.554Z,15.17
2023-03-21T12:10:31.604Z,15.28
2023-03-21T12:14:45.273Z,15.40
2023-03-21T12:19:03.970Z,15.50
2023-03-21T12:23:33.273Z,15.62
2023-03-21T12:27:46.136Z,15.81
2023-03-21T12:31:59.860Z,15.85
2023-03-21T12:36:17.741Z,15.99
2023-03-21T12:40:34.361Z,15.98
2023-03-21T12:44:41.983Z,15.74
2023-03-21T12:48:48.729Z,15.66
2023-03-21T12:52:56.931Z,15.60
2023-03-21T12:57:06.034Z,15.70
2023-03-21T13:01:12.148Z,15.83
2023-03-21T13:05:20.850Z,15.88
2023-03-21T13:09:38.019Z,15.86
2023-03-21T13:13:47.028Z,16.01
2023-03-21T13:17:55.515Z,16.18
2023-03-21T13:22:07.313Z,15.98
2023-03-21T13:26:12.774Z,15.83
2023-03-21T13:30:22.429Z,15.75
2023-03-21T13:34:26.780Z,15.70
2023-03-21T13:38:30.983Z,15.64
2023-03-21T13:42:35.282Z,15.59
2023-03-21T13:46:54.064Z,15.52
2023-03-21T13:51:03.027Z,15.48
2023-03-21T13:55:16.528Z,15.50
2023-03-21T13:59:38.309Z,15.50
2023-03-21T14:03:41.936Z,15.51
2023-03-21T14:07:50.045Z,15.50
2023-03-21T14:11:58.726Z,15.43
2023-03-21T14:16:13.784Z,15.34
2023-03-21T14:20:21.444Z,15.23
2023-03-21T14:24:24.577Z,15.13
2023-03-21T14:28:32.937Z,15.09
2023-03-21T14:32:37.264Z,15.08
2023-03-21T14:36:45.724Z,15.09
2023-03-21T14:40:53.812Z,15.10
2023-03-21T14:45:00.459Z,15.09
2023-03-21T14:49:19.866Z,15.13
2023-03-21T14:53:27.103Z,15.19
2023-03-21T14:57:35.666Z,15.25
2023-03-21T15:01:38.700Z,15.28
2023-03-21T15:05:43.390Z,15.30
2023-03-21T15:09:55.196Z,15.31
2023-03-21T15:14:00.959Z,15.29
2023-03-21T15:18:06.800Z,15.30
2023-03-21T15:22:18.988Z,15.29
2023-03-21T15:26:25.424Z,15.30
2023-03-21T15:30:30.854Z,15.26
2023-03-21T15:34:33.855Z,15.25
2023-03-21T15:38:42.495Z,15.24
2023-03-21T15:42:46.430Z,15.23
2023-03-21T15:46:51.374Z,15.19
2023-03-21T15:51:00.405Z,15.09
2023-03-21T15:55:21.203Z,15.04
2023-03-21T15:59:27.932Z,15.08
2023-03-21T16:03:33.335Z,15.11
2023-03-21T16:07:36.427Z,15.10
2023-03-21T16:11:43.550Z,15.11
2023-03-21T16:15:47.101Z,15.09
2023-03-21T16:19:50.078Z,15.08
2023-03-21T16:23:53.475Z,15.08
2023-03-21T16:27:58.389Z,15.08
2023-03-21T16:32:06.126Z,15.06
2023-03-21T16:36:15.481Z,15.04
2023-03-21T16:40:27.648Z,15.04
2023-03-21T16:44:32.008Z,15.00
2023-03-21T16:48:34.944Z,15.00
2023-03-21T16:52:38.020Z,14.97
2023-03-21T16:56:44.133Z,14.96
2023-03-21T17:00:50.623Z,14.94
2023-03-21T17:04:56.395Z,14.93
2023-03-21T17:09:00.702Z,14.91
2023-03-21T17:13:03.961Z,14.90
2023-03-21T17:17:14.728Z,14.88
2023-03-21T17:21:20.830Z,14.87
2023-03-21T17:25:24.062Z,14.84
2023-03-21T17:29:27.463Z,14.82
2023-03-21T17:33:32.081Z,14.75
2023-03-21T17:37:35.491Z,14.69
2023-03-21T17:41:38.851Z,14.65
2023-03-21T17:45:41.818Z,14.62
2023-03-21T17:49:46.594Z,14.56
2023-03-21T17:53:51.733Z,14.49
2023-03-21T17:57:54.918Z,14.42
2023-03-21T18:01:57.892Z,14.36
2023-03-21T18:06:02.226Z,14.27
2023-03-21T18:10:06.359Z,14.12
2023-03-21T18:14:17.267Z,13.99
2023-03-21T18:18:21.922Z,13.91
2023-03-21T18:22:26.284Z,13.82
2023-03-21T18:26:31.204Z,13.77
2023-03-21T18:30:56.423Z,13.73
2023-03-21T18:34:59.661Z,13.66
2023-03-21T18:39:05.129Z,13.54
2023-03-21T18:43:56.072Z,13.44
2023-03-21T18:47:31.328Z,13.36
2023-03-21T18:51:34.272Z,13.19
2023-03-21T18:55:45.963Z,13.04
2023-03-21T18:59:49.605Z,13.00
2023-03-21T19:04:17.830Z,12.96
2023-03-21T19:08:22.251Z,12.85
2023-03-21T19:12:26.779Z,12.76
2023-03-21T19:16:32.637Z,12.67
2023-03-21T19:20:44.392Z,12.62
2023-03-21T19:24:47.450Z,12.49
2023-03-21T19:28:51.761Z,12.38
2023-03-21T19:32:54.693Z,12.30
2023-03-21T19:36:58.030Z,12.21
2023-03-21T19:41:01.605Z,12.13
2023-03-21T19:45:07.052Z,12.07
2023-03-21T19:49:10.333Z,12.01
2023-03-21T19:53:13.805Z,11.92
2023-03-21T19:57:17.395Z,11.83
2023-03-21T20:01:22.190Z,11.74
2023-03-21T20:05:25.737Z,11.65
2023-03-21T20:09:50.416Z,11.50
2023-03-21T20:13:52.490Z,11.39
2023-03-21T20:17:58.638Z,11.36
2023-03-21T20:22:02.846Z,11.34
2023-03-21T20:26:10.449Z,11.33
2023-03-21T20:30:16.127Z,11.31
2023-03-21T20:34:21.342Z,11.30
2023-03-21T20:38:25.092Z,11.34
2023-03-21T20:42:29.760Z,11.37
2023-03-21T20:46:32.760Z,11.37
2023-03-21T20:50:39.507Z,11.34
2023-03-21T20:54:49.218Z,11.29
2023-03-21T20:59:04.853Z,11.26
2023-03-21T21:03:15.905Z,11.24
2023-03-21T21:07:21.819Z,11.28
2023-03-21T21:12:05.146Z,11.34
2023-03-21T21:15:47.852Z,11.39
2023-03-21T21:19:50.937Z,11.42
2023-03-21T21:23:55.416Z,11.46
2023-03-21T21:27:58.362Z,11.49
2023-03-21T21:32:05.423Z,11.51
2023-03-21T21:36:10.429Z,11.54
2023-03-21T21:40:20.352Z,11.53
2023-03-21T21:44:23.495Z,11.53
2023-03-21T21:48:27.096Z,11.52
2023-03-21T21:52:30.200Z,11.52
2023-03-21T21:56:38.512Z,11.53
2023-03-21T22:00:42.698Z,11.56
2023-03-21T22:04:45.621Z,11.61
2023-03-21T22:08:51.945Z,11.61
2023-03-21T22:12:56.517Z,11.61
2023-03-21T22:17:00.254Z,11.62
2023-03-21T22:21:03.619Z,11.63
2023-03-21T22:25:10.398Z,11.65
2023-03-21T22:29:14.686Z,11.67
2023-03-21T22:33:17.614Z,11.68
2023-03-21T22:37:20.758Z,11.68
2023-03-21T22:41:23.671Z,11.66
2023-03-21T22:45:28.048Z,11.64
2023-03-21T22:49:31.829Z,11.58
2023-03-21T22:53:34.851Z,11.45
2023-03-21T22:57:38.426Z,11.33
2023-03-21T23:01:43.037Z,11.22
2023-03-21T23:05:47.410Z,11.08
2023-03-21T23:09:50.660Z,11.07
2023-03-21T23:14:06.789Z,11.10
2023-03-21T23:18:12.176Z,11.13
2023-03-21T23:22:15.309Z,11.16
2023-03-21T23:26:19.796Z,11.17
2023-03-21T23:30:22.820Z,11.18
2023-03-21T23:34:27.789Z,11.18
2023-03-21T23:38:30.769Z,11.14
2023-03-21T23:42:34.245Z,11.09
2023-03-21T23:46:37.276Z,11.05
2023-03-21T23:50:41.979Z,11.01
2023-03-21T23:54:45.087Z,11.01
2023-03-21T23:58:49.791Z,10.98
